EZY301 EGHI-EGPH
Flight info
| Callsign | EZY301 |
|---|---|
| Flight time | 1h 0m |
| Altitude | 24000 |
| Route | NORRY Q41 SILVA M605 DTY Y53 SAPCO N57 POL N601 INPIP |
| Aircraft | A320/M-SDE2E3FGHIJ1RWXYZ/LB1 |
Departure
| Time | 2026-05-09 15:55 |
|---|---|
| Airport | Southampton Airport (EGHI) |
Arrival
| Time | 2026-05-09 16:55 |
|---|---|
| Airport | Edinburgh Airport (EGPH) |
| Time | Latitude | Longitude | Altitude | Speed | Heading |
|---|---|---|---|---|---|
| 2026-05-09 14:58 | 50.94987 | -1.36177 | 39 ft | 0 kts | 19° |
| 2026-05-09 15:42 | 50.94983 | -1.36180 | 39 ft | 3 kts | 19° |
| 2026-05-09 15:43 | 50.94959 | -1.36193 | 39 ft | 2 kts | 19° |
| 2026-05-09 15:43 | 50.94939 | -1.36206 | 38 ft | 4 kts | 49° |
| 2026-05-09 15:43 | 50.94935 | -1.36234 | 35 ft | 4 kts | 109° |
| 2026-05-09 15:43 | 50.94940 | -1.36257 | 38 ft | 0 kts | 109° |
| 2026-05-09 15:46 | 50.94940 | -1.36256 | 38 ft | 1 kts | 109° |
| 2026-05-09 15:47 | 50.94925 | -1.36186 | 37 ft | 8 kts | 109° |
| 2026-05-09 15:47 | 50.94907 | -1.36107 | 39 ft | 7 kts | 109° |
| 2026-05-09 15:47 | 50.94892 | -1.36043 | 39 ft | 5 kts | 117° |
| 2026-05-09 15:47 | 50.94863 | -1.36031 | 39 ft | 6 kts | 179° |
| 2026-05-09 15:48 | 50.94812 | -1.36056 | 39 ft | 8 kts | 199° |
| 2026-05-09 15:48 | 50.94765 | -1.36082 | 39 ft | 7 kts | 199° |
| 2026-05-09 15:48 | 50.94725 | -1.36104 | 39 ft | 6 kts | 199° |
| 2026-05-09 15:48 | 50.94692 | -1.36123 | 38 ft | 5 kts | 199° |
| 2026-05-09 15:49 | 50.94650 | -1.36144 | 39 ft | 7 kts | 187° |
| 2026-05-09 15:49 | 50.94611 | -1.36120 | 39 ft | 0 kts | 155° |
| 2026-05-09 15:50 | 50.94589 | -1.36085 | 39 ft | 10 kts | 118° |
| 2026-05-09 15:50 | 50.94565 | -1.35987 | 38 ft | 9 kts | 110° |
| 2026-05-09 15:51 | 50.94522 | -1.35959 | 38 ft | 7 kts | 187° |
| 2026-05-09 15:51 | 50.94481 | -1.35984 | 38 ft | 6 kts | 201° |
| 2026-05-09 15:51 | 50.94445 | -1.36003 | 38 ft | 5 kts | 199° |
| 2026-05-09 15:51 | 50.94411 | -1.36022 | 35 ft | 5 kts | 199° |
| 2026-05-09 15:52 | 50.94353 | -1.36050 | 37 ft | 4 kts | 181° |
| 2026-05-09 15:52 | 50.94311 | -1.36034 | 38 ft | 5 kts | 198° |
| 2026-05-09 15:52 | 50.94318 | -1.36081 | 38 ft | 7 kts | 329° |
| 2026-05-09 15:53 | 50.94351 | -1.36056 | 36 ft | 7 kts | 18° |
| 2026-05-09 15:53 | 50.94361 | -1.36051 | 37 ft | 0 kts | 19° |
| 2026-05-09 15:54 | 50.94492 | -1.35976 | 38 ft | 57 kts | 20° |
| 2026-05-09 15:54 | 50.95096 | -1.35639 | 40 ft | 123 kts | 19° |
| 2026-05-09 15:55 | 50.95991 | -1.35148 | 492 ft | 137 kts | 20° |
| 2026-05-09 15:55 | 50.96903 | -1.34647 | 1220 ft | 144 kts | 22° |
| 2026-05-09 15:55 | 50.97928 | -1.34073 | 1602 ft | 169 kts | 22° |
| 2026-05-09 15:55 | 50.99124 | -1.33485 | 2038 ft | 191 kts | 18° |
| 2026-05-09 15:56 | 51.00485 | -1.32912 | 2438 ft | 216 kts | 17° |
| 2026-05-09 15:56 | 51.02029 | -1.32264 | 2898 ft | 242 kts | 17° |
| 2026-05-09 15:56 | 51.03727 | -1.31546 | 3487 ft | 262 kts | 17° |
| 2026-05-09 15:56 | 51.05536 | -1.30786 | 4277 ft | 271 kts | 17° |
| 2026-05-09 15:57 | 51.07330 | -1.30034 | 5453 ft | 265 kts | 17° |
| 2026-05-09 15:57 | 51.09112 | -1.29270 | 6464 ft | 266 kts | 17° |
| 2026-05-09 15:57 | 51.10913 | -1.28492 | 7343 ft | 270 kts | 17° |
| 2026-05-09 15:57 | 51.12747 | -1.27698 | 8176 ft | 276 kts | 16° |
| 2026-05-09 15:58 | 51.14615 | -1.26887 | 9038 ft | 281 kts | 16° |
| 2026-05-09 15:58 | 51.16517 | -1.26058 | 9901 ft | 286 kts | 16° |
| 2026-05-09 15:58 | 51.18476 | -1.25207 | 10451 ft | 302 kts | 15° |
| 2026-05-09 15:58 | 51.20583 | -1.24297 | 10737 ft | 325 kts | 15° |
| 2026-05-09 15:59 | 51.22812 | -1.23333 | 11288 ft | 336 kts | 15° |
| 2026-05-09 15:59 | 51.25090 | -1.22343 | 12007 ft | 342 kts | 14° |
| 2026-05-09 15:59 | 51.27383 | -1.21347 | 12711 ft | 349 kts | 14° |
| 2026-05-09 15:59 | 51.29742 | -1.20323 | 13439 ft | 354 kts | 14° |
| 2026-05-09 16:00 | 51.32165 | -1.19270 | 14120 ft | 359 kts | 14° |
| 2026-05-09 16:00 | 51.32948 | -1.18930 | 14321 ft | 360 kts | 14° |
| 2026-05-09 16:00 | 51.37022 | -1.17149 | 15494 ft | 364 kts | 14° |
| 2026-05-09 16:00 | 51.39479 | -1.16071 | 16125 ft | 368 kts | 14° |
| 2026-05-09 16:01 | 51.41967 | -1.14986 | 16767 ft | 373 kts | 14° |
| 2026-05-09 16:01 | 51.44483 | -1.13884 | 17444 ft | 377 kts | 14° |
| 2026-05-09 16:01 | 51.46165 | -1.13147 | 17871 ft | 380 kts | 14° |
| 2026-05-09 16:01 | 51.48730 | -1.12023 | 18501 ft | 384 kts | 14° |
| 2026-05-09 16:02 | 51.52171 | -1.10531 | 19217 ft | 389 kts | 14° |
| 2026-05-09 16:02 | 51.57443 | -1.08271 | 20321 ft | 396 kts | 13° |
| 2026-05-09 16:02 | 51.59241 | -1.07503 | 20700 ft | 397 kts | 14° |
| 2026-05-09 16:03 | 51.61934 | -1.06419 | 21236 ft | 399 kts | 9° |
| 2026-05-09 16:03 | 51.64685 | -1.05701 | 21734 ft | 402 kts | 7° |
| 2026-05-09 16:03 | 51.67461 | -1.04995 | 22256 ft | 406 kts | 7° |
| 2026-05-09 16:03 | 51.71177 | -1.04048 | 22915 ft | 410 kts | 7° |
| 2026-05-09 16:04 | 51.73086 | -1.03559 | 23248 ft | 412 kts | 7° |
| 2026-05-09 16:04 | 51.75933 | -1.02824 | 23713 ft | 416 kts | 7° |
| 2026-05-09 16:04 | 51.78800 | -1.02081 | 24109 ft | 419 kts | 7° |
| 2026-05-09 16:04 | 51.81653 | -1.01344 | 24510 ft | 422 kts | 6° |
| 2026-05-09 16:05 | 51.84453 | -1.01003 | 24890 ft | 422 kts | 357° |
| 2026-05-09 16:05 | 51.87376 | -1.01385 | 25278 ft | 422 kts | 348° |
| 2026-05-09 16:05 | 51.90265 | -1.02302 | 25653 ft | 424 kts | 346° |
| 2026-05-09 16:05 | 51.93170 | -1.03254 | 25987 ft | 427 kts | 346° |
| 2026-05-09 16:06 | 51.96080 | -1.04206 | 26066 ft | 422 kts | 346° |
| 2026-05-09 16:06 | 51.98927 | -1.05131 | 26086 ft | 414 kts | 346° |
| 2026-05-09 16:06 | 52.01738 | -1.06046 | 26082 ft | 411 kts | 346° |
| 2026-05-09 16:06 | 52.04535 | -1.06961 | 26119 ft | 410 kts | 346° |
| 2026-05-09 16:07 | 52.07325 | -1.07880 | 26110 ft | 408 kts | 346° |
| 2026-05-09 16:07 | 52.10105 | -1.08793 | 26115 ft | 407 kts | 346° |
| 2026-05-09 16:07 | 52.12886 | -1.09706 | 26122 ft | 407 kts | 346° |
| 2026-05-09 16:07 | 52.15639 | -1.10608 | 26126 ft | 407 kts | 346° |
| 2026-05-09 16:08 | 52.18402 | -1.11715 | 26124 ft | 404 kts | 339° |
| 2026-05-09 16:08 | 52.20985 | -1.13369 | 26129 ft | 402 kts | 334° |
| 2026-05-09 16:08 | 52.23583 | -1.15122 | 26128 ft | 402 kts | 334° |
| 2026-05-09 16:08 | 52.26168 | -1.16863 | 26128 ft | 402 kts | 335° |
| 2026-05-09 16:09 | 52.28765 | -1.18608 | 26136 ft | 402 kts | 335° |
| 2026-05-09 16:09 | 52.31330 | -1.20328 | 26138 ft | 402 kts | 335° |
| 2026-05-09 16:09 | 52.33934 | -1.22077 | 26134 ft | 401 kts | 335° |
| 2026-05-09 16:09 | 52.36494 | -1.23805 | 26133 ft | 401 kts | 335° |
| 2026-05-09 16:10 | 52.39085 | -1.25553 | 26129 ft | 401 kts | 335° |
| 2026-05-09 16:10 | 52.41646 | -1.27283 | 26126 ft | 400 kts | 335° |
| 2026-05-09 16:10 | 52.44240 | -1.29040 | 26110 ft | 400 kts | 335° |
| 2026-05-09 16:10 | 52.46794 | -1.30770 | 26107 ft | 400 kts | 335° |
| 2026-05-09 16:11 | 52.49373 | -1.32521 | 26109 ft | 400 kts | 335° |
| 2026-05-09 16:11 | 52.51951 | -1.34272 | 26119 ft | 400 kts | 335° |
| 2026-05-09 16:11 | 52.54521 | -1.36011 | 26114 ft | 400 kts | 335° |
| 2026-05-09 16:11 | 52.57116 | -1.37679 | 26112 ft | 400 kts | 337° |
| 2026-05-09 16:12 | 52.59727 | -1.39266 | 26109 ft | 400 kts | 338° |
| 2026-05-09 16:12 | 52.62349 | -1.40809 | 26107 ft | 400 kts | 338° |
| 2026-05-09 16:12 | 52.64979 | -1.42350 | 26104 ft | 400 kts | 338° |
| 2026-05-09 16:12 | 52.67599 | -1.43899 | 26103 ft | 400 kts | 338° |
| 2026-05-09 16:13 | 52.70184 | -1.45444 | 26103 ft | 400 kts | 338° |
| 2026-05-09 16:13 | 52.72798 | -1.47024 | 26104 ft | 400 kts | 337° |
| 2026-05-09 16:13 | 52.75413 | -1.48618 | 26127 ft | 400 kts | 337° |
| 2026-05-09 16:13 | 52.78029 | -1.50221 | 26136 ft | 401 kts | 337° |
| 2026-05-09 16:14 | 52.80647 | -1.51824 | 26139 ft | 402 kts | 336° |
| 2026-05-09 16:14 | 52.83270 | -1.53426 | 26127 ft | 402 kts | 336° |
| 2026-05-09 16:14 | 52.85890 | -1.55021 | 26137 ft | 402 kts | 337° |
| 2026-05-09 16:14 | 52.88520 | -1.56623 | 26136 ft | 402 kts | 336° |
| 2026-05-09 16:15 | 52.91146 | -1.58227 | 26137 ft | 402 kts | 336° |
| 2026-05-09 16:15 | 52.93770 | -1.59831 | 26128 ft | 402 kts | 336° |
| 2026-05-09 16:15 | 52.96391 | -1.61439 | 26137 ft | 401 kts | 336° |
| 2026-05-09 16:15 | 52.99008 | -1.63050 | 26129 ft | 401 kts | 336° |
| 2026-05-09 16:16 | 53.01624 | -1.64666 | 26148 ft | 401 kts | 336° |
| 2026-05-09 16:16 | 53.04244 | -1.66287 | 26142 ft | 401 kts | 336° |
| 2026-05-09 16:16 | 53.06863 | -1.67905 | 26156 ft | 401 kts | 336° |
| 2026-05-09 16:16 | 53.09485 | -1.69526 | 26151 ft | 402 kts | 336° |
| 2026-05-09 16:17 | 53.12107 | -1.71151 | 26153 ft | 402 kts | 336° |
| 2026-05-09 16:17 | 53.14693 | -1.72755 | 26158 ft | 402 kts | 336° |
| 2026-05-09 16:17 | 53.17315 | -1.74380 | 26163 ft | 402 kts | 336° |
| 2026-05-09 16:17 | 53.19939 | -1.76009 | 26160 ft | 402 kts | 336° |
| 2026-05-09 16:18 | 53.22562 | -1.77640 | 26162 ft | 402 kts | 336° |
| 2026-05-09 16:18 | 53.25183 | -1.79270 | 26186 ft | 402 kts | 336° |
| 2026-05-09 16:18 | 53.27801 | -1.80904 | 26177 ft | 402 kts | 336° |
| 2026-05-09 16:18 | 53.30428 | -1.82544 | 26182 ft | 402 kts | 336° |
| 2026-05-09 16:19 | 53.33050 | -1.84187 | 26173 ft | 402 kts | 336° |
| 2026-05-09 16:19 | 53.35673 | -1.85831 | 26181 ft | 402 kts | 336° |
| 2026-05-09 16:19 | 53.38291 | -1.87476 | 26183 ft | 402 kts | 336° |
| 2026-05-09 16:19 | 53.40908 | -1.89120 | 26169 ft | 402 kts | 336° |
| 2026-05-09 16:20 | 53.43533 | -1.90772 | 26177 ft | 402 kts | 335° |
| 2026-05-09 16:20 | 53.46153 | -1.92425 | 26192 ft | 402 kts | 335° |
| 2026-05-09 16:20 | 53.48769 | -1.94076 | 26197 ft | 402 kts | 335° |
| 2026-05-09 16:20 | 53.51358 | -1.95711 | 26196 ft | 402 kts | 336° |
| 2026-05-09 16:21 | 53.54013 | -1.97385 | 26205 ft | 402 kts | 336° |
| 2026-05-09 16:21 | 53.56636 | -1.99040 | 26208 ft | 402 kts | 335° |
| 2026-05-09 16:21 | 53.59215 | -2.00675 | 26201 ft | 402 kts | 335° |
| 2026-05-09 16:21 | 53.61835 | -2.02335 | 26204 ft | 402 kts | 335° |
| 2026-05-09 16:22 | 53.64453 | -2.03994 | 26203 ft | 402 kts | 335° |
| 2026-05-09 16:22 | 53.67071 | -2.05656 | 26196 ft | 402 kts | 335° |
| 2026-05-09 16:22 | 53.69690 | -2.07323 | 26200 ft | 402 kts | 335° |
| 2026-05-09 16:22 | 53.72307 | -2.08995 | 26216 ft | 402 kts | 335° |
| 2026-05-09 16:23 | 53.74926 | -2.10671 | 26220 ft | 402 kts | 335° |
| 2026-05-09 16:23 | 53.77526 | -2.12384 | 26216 ft | 401 kts | 334° |
| 2026-05-09 16:23 | 53.80116 | -2.14143 | 26214 ft | 401 kts | 333° |
| 2026-05-09 16:23 | 53.82697 | -2.15927 | 26215 ft | 401 kts | 333° |
| 2026-05-09 16:24 | 53.85283 | -2.17725 | 26216 ft | 401 kts | 333° |
| 2026-05-09 16:24 | 53.87864 | -2.19518 | 26214 ft | 401 kts | 333° |
| 2026-05-09 16:24 | 53.90442 | -2.21300 | 26212 ft | 401 kts | 333° |
| 2026-05-09 16:24 | 53.93028 | -2.23079 | 26215 ft | 401 kts | 333° |
| 2026-05-09 16:25 | 53.95613 | -2.24854 | 26218 ft | 401 kts | 333° |
| 2026-05-09 16:25 | 53.98200 | -2.26632 | 26235 ft | 401 kts | 333° |
| 2026-05-09 16:25 | 54.00786 | -2.28409 | 26228 ft | 401 kts | 333° |
| 2026-05-09 16:25 | 54.03370 | -2.30181 | 26231 ft | 401 kts | 333° |
| 2026-05-09 16:26 | 54.05921 | -2.31936 | 26224 ft | 401 kts | 333° |
| 2026-05-09 16:26 | 54.08508 | -2.33720 | 26221 ft | 401 kts | 333° |
| 2026-05-09 16:26 | 54.11095 | -2.35514 | 26222 ft | 401 kts | 333° |
| 2026-05-09 16:26 | 54.13681 | -2.37316 | 26227 ft | 401 kts | 333° |
| 2026-05-09 16:27 | 54.16260 | -2.39119 | 26225 ft | 401 kts | 333° |
| 2026-05-09 16:27 | 54.18841 | -2.40915 | 26224 ft | 401 kts | 333° |
| 2026-05-09 16:27 | 54.21431 | -2.42710 | 26222 ft | 401 kts | 333° |
| 2026-05-09 16:27 | 54.24017 | -2.44502 | 26251 ft | 401 kts | 332° |
| 2026-05-09 16:28 | 54.26601 | -2.46304 | 26241 ft | 401 kts | 332° |
| 2026-05-09 16:28 | 54.29188 | -2.48113 | 26237 ft | 401 kts | 332° |
| 2026-05-09 16:28 | 54.31777 | -2.49922 | 26235 ft | 402 kts | 332° |
| 2026-05-09 16:28 | 54.34365 | -2.51728 | 26240 ft | 402 kts | 332° |
| 2026-05-09 16:29 | 54.36917 | -2.53511 | 26239 ft | 402 kts | 332° |
| 2026-05-09 16:29 | 54.39508 | -2.55328 | 26239 ft | 402 kts | 332° |
| 2026-05-09 16:29 | 54.42096 | -2.57150 | 26245 ft | 402 kts | 332° |
| 2026-05-09 16:29 | 54.44679 | -2.58973 | 26242 ft | 402 kts | 332° |
| 2026-05-09 16:30 | 54.47265 | -2.60798 | 26267 ft | 402 kts | 332° |
| 2026-05-09 16:30 | 54.49850 | -2.62621 | 26267 ft | 402 kts | 331° |
| 2026-05-09 16:30 | 54.52436 | -2.64447 | 26270 ft | 402 kts | 331° |
| 2026-05-09 16:30 | 54.55031 | -2.66281 | 26259 ft | 402 kts | 331° |
| 2026-05-09 16:31 | 54.57616 | -2.68115 | 26255 ft | 402 kts | 331° |
| 2026-05-09 16:31 | 54.60201 | -2.69952 | 26260 ft | 402 kts | 331° |
| 2026-05-09 16:31 | 54.62789 | -2.71794 | 26265 ft | 402 kts | 331° |
| 2026-05-09 16:31 | 54.65373 | -2.73641 | 26264 ft | 402 kts | 330° |
| 2026-05-09 16:32 | 54.67956 | -2.75492 | 26262 ft | 402 kts | 331° |
| 2026-05-09 16:32 | 54.69665 | -2.76714 | 26262 ft | 402 kts | 331° |
| 2026-05-09 16:32 | 54.73088 | -2.79159 | 26296 ft | 402 kts | 330° |
| 2026-05-09 16:32 | 54.75676 | -2.81007 | 26286 ft | 402 kts | 330° |
| 2026-05-09 16:33 | 54.78256 | -2.82851 | 26282 ft | 402 kts | 330° |
| 2026-05-09 16:33 | 54.80839 | -2.84703 | 26277 ft | 402 kts | 330° |
| 2026-05-09 16:33 | 54.83421 | -2.86556 | 26275 ft | 402 kts | 330° |
| 2026-05-09 16:33 | 54.86006 | -2.88417 | 26269 ft | 400 kts | 330° |
| 2026-05-09 16:34 | 54.88562 | -2.90258 | 26213 ft | 396 kts | 330° |
| 2026-05-09 16:34 | 54.91114 | -2.92106 | 25501 ft | 399 kts | 330° |
| 2026-05-09 16:34 | 54.93668 | -2.93961 | 24949 ft | 397 kts | 330° |
| 2026-05-09 16:34 | 54.96213 | -2.95807 | 24393 ft | 395 kts | 329° |
| 2026-05-09 16:35 | 54.98746 | -2.97641 | 23863 ft | 394 kts | 329° |
| 2026-05-09 16:35 | 55.01274 | -2.99470 | 23238 ft | 392 kts | 329° |
| 2026-05-09 16:35 | 55.03780 | -3.01282 | 22700 ft | 388 kts | 330° |
| 2026-05-09 16:35 | 55.06262 | -3.03082 | 22152 ft | 385 kts | 330° |
| 2026-05-09 16:36 | 55.08725 | -3.04875 | 21617 ft | 382 kts | 330° |
| 2026-05-09 16:36 | 55.15999 | -3.10199 | 19985 ft | 375 kts | 330° |
| 2026-05-09 16:37 | 55.18398 | -3.11954 | 19582 ft | 370 kts | 331° |
| 2026-05-09 16:37 | 55.20763 | -3.13689 | 19118 ft | 367 kts | 331° |
| 2026-05-09 16:37 | 55.23110 | -3.15418 | 18696 ft | 365 kts | 331° |
| 2026-05-09 16:37 | 55.25406 | -3.17109 | 18236 ft | 361 kts | 332° |
| 2026-05-09 16:38 | 55.27705 | -3.18800 | 17893 ft | 354 kts | 332° |
| 2026-05-09 16:38 | 55.30048 | -3.19968 | 17751 ft | 349 kts | 347° |
| 2026-05-09 16:38 | 55.32459 | -3.20032 | 17616 ft | 345 kts | 360° |
| 2026-05-09 16:38 | 55.34822 | -3.19655 | 17399 ft | 338 kts | 360° |
| 2026-05-09 16:39 | 55.37150 | -3.19287 | 17054 ft | 334 kts | 360° |
| 2026-05-09 16:39 | 55.39467 | -3.18922 | 16690 ft | 332 kts | 360° |
| 2026-05-09 16:39 | 55.41761 | -3.18562 | 16330 ft | 330 kts | 360° |
| 2026-05-09 16:39 | 55.44040 | -3.18207 | 15979 ft | 328 kts | 0° |
| 2026-05-09 16:40 | 55.46307 | -3.17852 | 15659 ft | 326 kts | 0° |
| 2026-05-09 16:40 | 55.48562 | -3.17499 | 15349 ft | 324 kts | 0° |
| 2026-05-09 16:42 | 55.63928 | -3.15090 | 13036 ft | 309 kts | 1° |
| 2026-05-09 16:42 | 55.66024 | -3.14926 | 12823 ft | 298 kts | 348° |
| 2026-05-09 16:42 | 55.67906 | -3.16065 | 12695 ft | 279 kts | 323° |
| 2026-05-09 16:42 | 55.69239 | -3.18387 | 12543 ft | 264 kts | 298° |
| 2026-05-09 16:43 | 55.69885 | -3.21351 | 12286 ft | 256 kts | 276° |
| 2026-05-09 16:43 | 55.69806 | -3.24461 | 11963 ft | 254 kts | 255° |
| 2026-05-09 16:43 | 55.69274 | -3.27454 | 11511 ft | 257 kts | 252° |
| 2026-05-09 16:43 | 55.68707 | -3.30550 | 10793 ft | 269 kts | 253° |
| 2026-05-09 16:44 | 55.68128 | -3.33724 | 10050 ft | 271 kts | 253° |
| 2026-05-09 16:44 | 55.67547 | -3.36915 | 9259 ft | 273 kts | 254° |
| 2026-05-09 16:44 | 55.66964 | -3.40124 | 8483 ft | 275 kts | 254° |
| 2026-05-09 16:44 | 55.66379 | -3.43343 | 7834 ft | 272 kts | 254° |
| 2026-05-09 16:45 | 55.65810 | -3.46428 | 7580 ft | 256 kts | 254° |
| 2026-05-09 16:45 | 55.65269 | -3.49366 | 7319 ft | 252 kts | 254° |
| 2026-05-09 16:45 | 55.64832 | -3.52320 | 7063 ft | 245 kts | 267° |
| 2026-05-09 16:45 | 55.64938 | -3.55236 | 6811 ft | 231 kts | 286° |
| 2026-05-09 16:46 | 55.65563 | -3.57790 | 6553 ft | 224 kts | 305° |
| 2026-05-09 16:46 | 55.66600 | -3.59808 | 6287 ft | 220 kts | 319° |
| 2026-05-09 16:46 | 55.67727 | -3.61616 | 6017 ft | 217 kts | 319° |
| 2026-05-09 16:46 | 55.68836 | -3.63404 | 5752 ft | 214 kts | 319° |
| 2026-05-09 16:47 | 55.69954 | -3.65133 | 5493 ft | 212 kts | 321° |
| 2026-05-09 16:47 | 55.71092 | -3.66794 | 5234 ft | 211 kts | 322° |
| 2026-05-09 16:47 | 55.72229 | -3.68428 | 4974 ft | 211 kts | 322° |
| 2026-05-09 16:47 | 55.73367 | -3.70063 | 4713 ft | 210 kts | 322° |
| 2026-05-09 16:48 | 55.74493 | -3.71687 | 4454 ft | 207 kts | 322° |
| 2026-05-09 16:48 | 55.75601 | -3.73309 | 4189 ft | 205 kts | 320° |
| 2026-05-09 16:48 | 55.76634 | -3.75040 | 4020 ft | 201 kts | 317° |
| 2026-05-09 16:48 | 55.77596 | -3.76762 | 3978 ft | 191 kts | 317° |
| 2026-05-09 16:49 | 55.78664 | -3.78029 | 3973 ft | 186 kts | 342° |
| 2026-05-09 16:49 | 55.79945 | -3.78230 | 3985 ft | 187 kts | 10° |
| 2026-05-09 16:49 | 55.81119 | -3.77311 | 3978 ft | 187 kts | 37° |
| 2026-05-09 16:50 | 55.82663 | -3.73570 | 3994 ft | 190 kts | 56° |
| 2026-05-09 16:50 | 55.83329 | -3.71536 | 3995 ft | 190 kts | 57° |
| 2026-05-09 16:50 | 55.83993 | -3.69511 | 3999 ft | 189 kts | 56° |
| 2026-05-09 16:50 | 55.84671 | -3.67507 | 3884 ft | 190 kts | 56° |
| 2026-05-09 16:51 | 55.85357 | -3.65503 | 3669 ft | 190 kts | 57° |
| 2026-05-09 16:51 | 55.86047 | -3.63489 | 3417 ft | 191 kts | 57° |
| 2026-05-09 16:51 | 55.86508 | -3.62145 | 3247 ft | 193 kts | 58° |
| 2026-05-09 16:51 | 55.87210 | -3.60099 | 2978 ft | 195 kts | 59° |
| 2026-05-09 16:52 | 55.87913 | -3.58044 | 2732 ft | 193 kts | 59° |
| 2026-05-09 16:52 | 55.88598 | -3.56042 | 2450 ft | 184 kts | 59° |
| 2026-05-09 16:52 | 55.89240 | -3.54167 | 2196 ft | 171 kts | 60° |
| 2026-05-09 16:52 | 55.89832 | -3.52434 | 1984 ft | 154 kts | 61° |
| 2026-05-09 16:53 | 55.90358 | -3.50894 | 1771 ft | 139 kts | 61° |
| 2026-05-09 16:53 | 55.90844 | -3.49470 | 1583 ft | 131 kts | 61° |
| 2026-05-09 16:53 | 55.91316 | -3.48096 | 1388 ft | 129 kts | 62° |
| 2026-05-09 16:53 | 55.91790 | -3.46754 | 1180 ft | 128 kts | 61° |
| 2026-05-09 16:54 | 55.92248 | -3.45401 | 1008 ft | 127 kts | 63° |
| 2026-05-09 16:54 | 55.92696 | -3.44036 | 828 ft | 127 kts | 61° |
| 2026-05-09 16:54 | 55.93142 | -3.42685 | 648 ft | 127 kts | 59° |
| 2026-05-09 16:54 | 55.93604 | -3.41355 | 489 ft | 127 kts | 59° |
| 2026-05-09 16:55 | 55.94057 | -3.40021 | 302 ft | 126 kts | 58° |
| 2026-05-09 16:55 | 55.94511 | -3.38687 | 148 ft | 125 kts | 58° |
| 2026-05-09 16:55 | 55.94907 | -3.37528 | 112 ft | 76 kts | 59° |
| 2026-05-09 16:55 | 55.95075 | -3.37035 | 112 ft | 35 kts | 60° |
| 2026-05-09 16:56 | 55.95189 | -3.36689 | 112 ft | 30 kts | 59° |
| 2026-05-09 16:56 | 55.95260 | -3.36474 | 111 ft | 8 kts | 60° |
| 2026-05-09 16:56 | 55.95245 | -3.36399 | 111 ft | 7 kts | 150° |
| 2026-05-09 16:56 | 55.95221 | -3.36376 | 113 ft | 5 kts | 151° |
| 2026-05-09 16:57 | 55.95190 | -3.36346 | 113 ft | 4 kts | 151° |
| 2026-05-09 16:57 | 55.95155 | -3.36311 | 115 ft | 6 kts | 153° |
| 2026-05-09 16:57 | 55.95121 | -3.36328 | 112 ft | 5 kts | 219° |
| 2026-05-09 16:57 | 55.95105 | -3.36370 | 114 ft | 4 kts | 238° |
| 2026-05-09 16:58 | 55.95069 | -3.36401 | 114 ft | 7 kts | 178° |
| 2026-05-09 16:58 | 55.95030 | -3.36384 | 112 ft | 5 kts | 187° |
| 2026-05-09 16:58 | 55.94995 | -3.36452 | 115 ft | 8 kts | 240° |
| 2026-05-09 16:58 | 55.94968 | -3.36534 | 112 ft | 6 kts | 239° |
| 2026-05-09 16:59 | 55.94942 | -3.36538 | 114 ft | 4 kts | 148° |
| 2026-05-09 16:59 | 55.94924 | -3.36516 | 114 ft | 3 kts | 149° |
| 2026-05-09 16:59 | 55.94909 | -3.36500 | 113 ft | 2 kts | 149° |
| 2026-05-09 16:59 | 55.94906 | -3.36496 | 114 ft | 0 kts | 149° |